Check Row, Illinois
Current Conditions -  °F | °C
As of 1:15 AM on Friday 31 Oct 2014 (Local Time) from KMQB Reporting Station
Overcast Overcast  
Wind Chill: 44°   Ceiling: 6500
Heat Index: 44°   Visibility: 7mi
Dew Point: 42°   Wind: 3mph
Humidity: 91%   Direction: 340°NNW
Pressure: 30.13"   Gusts: NA
Location:  40.6414°N, 90.4243°W
Report Text: KMQB 310615Z AUTO 34003KT 7SM OVC065 07/06 A3013 RMK AO2 T00680055
Loading
Personal Weather Stations






























Interactive Weather Map
Tropical Storm Tracking
New forecast layout! Learn more

10-Day Weather Forecast

Advertisements
Track Severe Weather on mobile